sensor_id;sensor_type;location;lat;lon;timestamp;P1;durP1;ratioP1;P2;durP2;ratioP2
72649;SDS011;61467;50.674;4.618;2023-11-18T00:00:46;16.60;;;8.73;;
72649;SDS011;61467;50.674;4.618;2023-11-18T00:03:13;18.07;;;7.43;;
72649;SDS011;61467;50.674;4.618;2023-11-18T00:05:39;15.80;;;7.43;;
72649;SDS011;61467;50.674;4.618;2023-11-18T00:08:06;16.67;;;8.30;;
72649;SDS011;61467;50.674;4.618;2023-11-18T00:10:34;16.98;;;7.22;;
72649;SDS011;61467;50.674;4.618;2023-11-18T00:13:01;17.75;;;7.82;;
72649;SDS011;61467;50.674;4.618;2023-11-18T00:15:29;16.37;;;6.60;;
72649;SDS011;61467;50.674;4.618;2023-11-18T00:17:56;14.48;;;6.85;;
72649;SDS011;61467;50.674;4.618;2023-11-18T00:20:22;18.30;;;7.47;;
72649;SDS011;61467;50.674;4.618;2023-11-18T00:22:50;14.40;;;7.22;;
72649;SDS011;61467;50.674;4.618;2023-11-18T00:25:18;14.98;;;7.22;;
72649;SDS011;61467;50.674;4.618;2023-11-18T00:27:47;15.90;;;6.70;;
72649;SDS011;61467;50.674;4.618;2023-11-18T00:30:15;12.85;;;5.93;;
72649;SDS011;61467;50.674;4.618;2023-11-18T00:32:42;14.88;;;6.38;;
72649;SDS011;61467;50.674;4.618;2023-11-18T00:35:09;13.85;;;6.13;;
72649;SDS011;61467;50.674;4.618;2023-11-18T00:37:36;14.63;;;6.57;;
72649;SDS011;61467;50.674;4.618;2023-11-18T00:40:04;16.57;;;6.27;;
72649;SDS011;61467;50.674;4.618;2023-11-18T00:42:32;13.10;;;6.00;;
72649;SDS011;61467;50.674;4.618;2023-11-18T00:45:00;15.15;;;6.50;;
72649;SDS011;61467;50.674;4.618;2023-11-18T00:47:29;15.70;;;5.82;;
72649;SDS011;61467;50.674;4.618;2023-11-18T00:49:56;12.68;;;6.80;;
72649;SDS011;61467;50.674;4.618;2023-11-18T00:52:24;11.33;;;5.80;;
72649;SDS011;61467;50.674;4.618;2023-11-18T00:54:50;14.70;;;6.32;;
72649;SDS011;61467;50.674;4.618;2023-11-18T00:57:17;15.07;;;6.07;;
72649;SDS011;61467;50.674;4.618;2023-11-18T00:59:44;12.70;;;6.07;;
72649;SDS011;61467;50.674;4.618;2023-11-18T01:02:13;12.48;;;6.32;;
72649;SDS011;61467;50.674;4.618;2023-11-18T01:04:40;11.50;;;5.60;;
72649;SDS011;61467;50.674;4.618;2023-11-18T01:07:06;15.25;;;6.43;;
72649;SDS011;61467;50.674;4.618;2023-11-18T01:09:34;17.25;;;6.65;;
72649;SDS011;61467;50.674;4.618;2023-11-18T01:12:04;15.32;;;6.65;;
72649;SDS011;61467;50.674;4.618;2023-11-18T01:14:35;13.95;;;6.32;;
72649;SDS011;61467;50.674;4.618;2023-11-18T01:17:03;17.17;;;6.30;;
72649;SDS011;61467;50.674;4.618;2023-11-18T01:19:31;13.07;;;5.97;;
72649;SDS011;61467;50.674;4.618;2023-11-18T01:21:59;18.40;;;6.00;;
72649;SDS011;61467;50.674;4.618;2023-11-18T01:24:26;14.07;;;6.03;;
72649;SDS011;61467;50.674;4.618;2023-11-18T01:26:53;12.75;;;6.03;;
72649;SDS011;61467;50.674;4.618;2023-11-18T01:29:19;14.20;;;5.50;;
72649;SDS011;61467;50.674;4.618;2023-11-18T01:31:47;15.13;;;6.25;;
72649;SDS011;61467;50.674;4.618;2023-11-18T01:34:14;18.38;;;6.45;;
72649;SDS011;61467;50.674;4.618;2023-11-18T01:36:43;13.57;;;5.57;;
72649;SDS011;61467;50.674;4.618;2023-11-18T01:39:10;13.30;;;5.68;;
72649;SDS011;61467;50.674;4.618;2023-11-18T01:41:38;17.13;;;6.00;;
72649;SDS011;61467;50.674;4.618;2023-11-18T01:44:05;16.95;;;5.90;;
72649;SDS011;61467;50.674;4.618;2023-11-18T01:46:33;11.88;;;5.50;;
72649;SDS011;61467;50.674;4.618;2023-11-18T01:49:01;14.43;;;5.97;;
72649;SDS011;61467;50.674;4.618;2023-11-18T01:51:29;12.40;;;5.68;;
72649;SDS011;61467;50.674;4.618;2023-11-18T01:53:57;12.37;;;5.33;;
72649;SDS011;61467;50.674;4.618;2023-11-18T01:56:26;13.27;;;5.72;;
72649;SDS011;61467;50.674;4.618;2023-11-18T01:58:54;13.98;;;5.85;;
72649;SDS011;61467;50.674;4.618;2023-11-18T02:01:24;14.02;;;4.45;;
72649;SDS011;61467;50.674;4.618;2023-11-18T02:03:52;12.43;;;4.90;;
72649;SDS011;61467;50.674;4.618;2023-11-18T02:06:19;12.73;;;4.83;;
72649;SDS011;61467;50.674;4.618;2023-11-18T02:08:47;12.43;;;4.75;;
72649;SDS011;61467;50.674;4.618;2023-11-18T02:11:16;11.00;;;5.03;;
72649;SDS011;61467;50.674;4.618;2023-11-18T02:13:48;13.07;;;4.93;;
72649;SDS011;61467;50.674;4.618;2023-11-18T02:16:16;11.32;;;4.70;;
72649;SDS011;61467;50.674;4.618;2023-11-18T02:18:47;13.20;;;4.07;;
72649;SDS011;61467;50.674;4.618;2023-11-18T02:21:17;9.85;;;4.20;;
72649;SDS011;61467;50.674;4.618;2023-11-18T02:23:43;11.45;;;4.65;;
72649;SDS011;61467;50.674;4.618;2023-11-18T02:26:12;12.02;;;4.40;;
72649;SDS011;61467;50.674;4.618;2023-11-18T02:28:47;9.73;;;4.50;;
72649;SDS011;61467;50.674;4.618;2023-11-18T02:31:15;11.03;;;4.97;;
72649;SDS011;61467;50.674;4.618;2023-11-18T02:33:53;13.13;;;4.55;;
72649;SDS011;61467;50.674;4.618;2023-11-18T02:36:25;11.15;;;4.10;;
72649;SDS011;61467;50.674;4.618;2023-11-18T02:39:01;10.75;;;4.45;;
72649;SDS011;61467;50.674;4.618;2023-11-18T02:41:35;9.57;;;4.13;;
72649;SDS011;61467;50.674;4.618;2023-11-18T02:44:04;13.87;;;4.10;;
72649;SDS011;61467;50.674;4.618;2023-11-18T02:46:35;12.20;;;3.90;;
72649;SDS011;61467;50.674;4.618;2023-11-18T02:49:03;12.35;;;4.18;;
72649;SDS011;61467;50.674;4.618;2023-11-18T02:51:30;14.13;;;4.10;;
72649;SDS011;61467;50.674;4.618;2023-11-18T02:53:58;11.52;;;4.50;;
72649;SDS011;61467;50.674;4.618;2023-11-18T02:56:30;12.67;;;4.47;;
72649;SDS011;61467;50.674;4.618;2023-11-18T02:58:58;13.57;;;4.20;;
72649;SDS011;61467;50.674;4.618;2023-11-18T03:01:32;9.88;;;3.92;;
72649;SDS011;61467;50.674;4.618;2023-11-18T03:03:59;9.50;;;3.72;;
72649;SDS011;61467;50.674;4.618;2023-11-18T03:06:27;11.45;;;3.83;;
72649;SDS011;61467;50.674;4.618;2023-11-18T03:08:54;10.73;;;3.17;;
72649;SDS011;61467;50.674;4.618;2023-11-18T03:11:20;8.93;;;3.42;;
72649;SDS011;61467;50.674;4.618;2023-11-18T03:13:50;8.55;;;3.17;;
72649;SDS011;61467;50.674;4.618;2023-11-18T03:16:18;7.70;;;2.92;;
72649;SDS011;61467;50.674;4.618;2023-11-18T03:18:45;10.25;;;3.40;;
72649;SDS011;61467;50.674;4.618;2023-11-18T03:21:13;12.53;;;3.57;;
72649;SDS011;61467;50.674;4.618;2023-11-18T03:23:40;10.70;;;3.10;;
72649;SDS011;61467;50.674;4.618;2023-11-18T03:26:08;9.05;;;3.40;;
72649;SDS011;61467;50.674;4.618;2023-11-18T03:28:35;9.10;;;3.20;;
72649;SDS011;61467;50.674;4.618;2023-11-18T03:31:03;14.38;;;3.72;;
72649;SDS011;61467;50.674;4.618;2023-11-18T03:33:31;10.63;;;3.63;;
72649;SDS011;61467;50.674;4.618;2023-11-18T03:35:58;8.38;;;3.33;;
72649;SDS011;61467;50.674;4.618;2023-11-18T03:38:25;7.65;;;3.20;;
72649;SDS011;61467;50.674;4.618;2023-11-18T03:40:52;13.68;;;4.10;;
72649;SDS011;61467;50.674;4.618;2023-11-18T03:43:21;9.35;;;3.53;;
72649;SDS011;61467;50.674;4.618;2023-11-18T03:45:48;8.37;;;3.13;;
72649;SDS011;61467;50.674;4.618;2023-11-18T03:48:17;9.68;;;2.92;;
72649;SDS011;61467;50.674;4.618;2023-11-18T03:50:46;9.55;;;3.25;;
72649;SDS011;61467;50.674;4.618;2023-11-18T03:53:13;12.77;;;2.60;;
72649;SDS011;61467;50.674;4.618;2023-11-18T03:55:40;10.68;;;3.10;;
72649;SDS011;61467;50.674;4.618;2023-11-18T03:58:07;8.53;;;3.00;;
72649;SDS011;61467;50.674;4.618;2023-11-18T04:00:35;11.52;;;2.80;;
72649;SDS011;61467;50.674;4.618;2023-11-18T04:03:02;10.27;;;2.50;;
72649;SDS011;61467;50.674;4.618;2023-11-18T04:05:32;8.90;;;2.30;;
72649;SDS011;61467;50.674;4.618;2023-11-18T04:08:02;9.10;;;2.67;;
72649;SDS011;61467;50.674;4.618;2023-11-18T04:10:29;10.33;;;2.43;;
72649;SDS011;61467;50.674;4.618;2023-11-18T04:12:55;7.38;;;1.67;;
72649;SDS011;61467;50.674;4.618;2023-11-18T04:15:22;8.65;;;1.95;;
72649;SDS011;61467;50.674;4.618;2023-11-18T04:17:50;9.73;;;2.50;;
72649;SDS011;61467;50.674;4.618;2023-11-18T04:20:17;9.10;;;2.03;;
72649;SDS011;61467;50.674;4.618;2023-11-18T04:22:44;6.40;;;1.97;;
72649;SDS011;61467;50.674;4.618;2023-11-18T04:25:12;7.93;;;2.28;;
72649;SDS011;61467;50.674;4.618;2023-11-18T04:27:40;8.88;;;2.60;;
72649;SDS011;61467;50.674;4.618;2023-11-18T04:30:07;6.82;;;2.15;;
72649;SDS011;61467;50.674;4.618;2023-11-18T04:32:35;10.18;;;2.30;;
72649;SDS011;61467;50.674;4.618;2023-11-18T04:35:01;8.30;;;2.00;;
72649;SDS011;61467;50.674;4.618;2023-11-18T04:37:32;9.85;;;2.50;;
72649;SDS011;61467;50.674;4.618;2023-11-18T04:39:59;8.52;;;2.03;;
72649;SDS011;61467;50.674;4.618;2023-11-18T04:42:28;10.13;;;3.35;;
72649;SDS011;61467;50.674;4.618;2023-11-18T04:44:55;8.18;;;2.03;;
72649;SDS011;61467;50.674;4.618;2023-11-18T04:47:22;10.13;;;2.20;;
72649;SDS011;61467;50.674;4.618;2023-11-18T04:49:50;8.38;;;1.90;;
72649;SDS011;61467;50.674;4.618;2023-11-18T04:52:17;8.55;;;2.70;;
72649;SDS011;61467;50.674;4.618;2023-11-18T04:54:43;9.10;;;2.00;;
72649;SDS011;61467;50.674;4.618;2023-11-18T04:57:13;10.30;;;2.10;;
72649;SDS011;61467;50.674;4.618;2023-11-18T04:59:41;7.53;;;1.73;;
72649;SDS011;61467;50.674;4.618;2023-11-18T05:02:08;7.97;;;1.73;;
72649;SDS011;61467;50.674;4.618;2023-11-18T05:04:35;8.57;;;1.77;;
72649;SDS011;61467;50.674;4.618;2023-11-18T05:07:02;9.48;;;2.00;;
72649;SDS011;61467;50.674;4.618;2023-11-18T05:09:31;8.15;;;2.05;;
72649;SDS011;61467;50.674;4.618;2023-11-18T05:11:59;9.33;;;1.63;;
72649;SDS011;61467;50.674;4.618;2023-11-18T05:14:27;8.27;;;1.92;;
72649;SDS011;61467;50.674;4.618;2023-11-18T05:16:56;9.00;;;1.95;;
72649;SDS011;61467;50.674;4.618;2023-11-18T05:19:23;7.93;;;1.92;;
72649;SDS011;61467;50.674;4.618;2023-11-18T05:21:50;9.05;;;2.10;;
72649;SDS011;61467;50.674;4.618;2023-11-18T05:24:17;9.07;;;2.10;;
72649;SDS011;61467;50.674;4.618;2023-11-18T05:26:44;7.88;;;1.70;;
72649;SDS011;61467;50.674;4.618;2023-11-18T05:29:10;8.48;;;2.00;;
72649;SDS011;61467;50.674;4.618;2023-11-18T05:31:42;7.65;;;1.60;;
72649;SDS011;61467;50.674;4.618;2023-11-18T05:34:10;7.82;;;1.80;;
72649;SDS011;61467;50.674;4.618;2023-11-18T05:36:38;10.47;;;2.07;;
72649;SDS011;61467;50.674;4.618;2023-11-18T05:39:05;10.15;;;2.20;;
72649;SDS011;61467;50.674;4.618;2023-11-18T05:41:34;7.70;;;2.63;;
72649;SDS011;61467;50.674;4.618;2023-11-18T05:44:04;9.30;;;2.10;;
72649;SDS011;61467;50.674;4.618;2023-11-18T05:46:34;7.78;;;1.98;;
72649;SDS011;61467;50.674;4.618;2023-11-18T05:49:01;7.03;;;1.73;;
72649;SDS011;61467;50.674;4.618;2023-11-18T05:51:34;5.55;;;1.70;;
72649;SDS011;61467;50.674;4.618;2023-11-18T05:54:01;11.02;;;2.17;;
72649;SDS011;61467;50.674;4.618;2023-11-18T05:56:28;6.32;;;1.85;;
72649;SDS011;61467;50.674;4.618;2023-11-18T05:58:58;11.38;;;2.30;;
72649;SDS011;61467;50.674;4.618;2023-11-18T06:01:28;10.70;;;1.83;;
72649;SDS011;61467;50.674;4.618;2023-11-18T06:03:56;7.88;;;1.90;;
72649;SDS011;61467;50.674;4.618;2023-11-18T06:06:26;11.32;;;2.30;;
72649;SDS011;61467;50.674;4.618;2023-11-18T06:08:55;5.97;;;1.90;;
72649;SDS011;61467;50.674;4.618;2023-11-18T06:11:30;7.55;;;2.20;;
72649;SDS011;61467;50.674;4.618;2023-11-18T06:13:57;6.33;;;1.70;;
72649;SDS011;61467;50.674;4.618;2023-11-18T06:16:25;9.18;;;2.30;;
72649;SDS011;61467;50.674;4.618;2023-11-18T06:18:53;7.32;;;1.80;;
72649;SDS011;61467;50.674;4.618;2023-11-18T06:21:21;7.75;;;1.67;;
72649;SDS011;61467;50.674;4.618;2023-11-18T06:23:50;5.97;;;1.70;;
72649;SDS011;61467;50.674;4.618;2023-11-18T06:26:18;8.23;;;1.73;;
72649;SDS011;61467;50.674;4.618;2023-11-18T06:28:45;7.20;;;2.03;;
72649;SDS011;61467;50.674;4.618;2023-11-18T06:31:14;9.85;;;1.80;;
72649;SDS011;61467;50.674;4.618;2023-11-18T06:33:42;6.70;;;1.83;;
72649;SDS011;61467;50.674;4.618;2023-11-18T06:36:09;7.25;;;2.28;;
72649;SDS011;61467;50.674;4.618;2023-11-18T06:38:43;7.70;;;2.17;;
72649;SDS011;61467;50.674;4.618;2023-11-18T06:41:10;7.03;;;1.70;;
72649;SDS011;61467;50.674;4.618;2023-11-18T06:43:40;9.93;;;2.60;;
72649;SDS011;61467;50.674;4.618;2023-11-18T06:46:17;11.57;;;2.15;;
72649;SDS011;61467;50.674;4.618;2023-11-18T06:48:50;6.53;;;1.77;;
72649;SDS011;61467;50.674;4.618;2023-11-18T06:51:19;8.37;;;1.87;;
72649;SDS011;61467;50.674;4.618;2023-11-18T06:53:48;7.63;;;1.85;;
72649;SDS011;61467;50.674;4.618;2023-11-18T06:56:15;10.40;;;2.22;;
72649;SDS011;61467;50.674;4.618;2023-11-18T06:58:44;8.00;;;1.92;;
72649;SDS011;61467;50.674;4.618;2023-11-18T07:01:12;6.85;;;2.10;;
72649;SDS011;61467;50.674;4.618;2023-11-18T07:03:39;7.63;;;2.53;;
72649;SDS011;61467;50.674;4.618;2023-11-18T07:06:08;7.15;;;2.08;;
72649;SDS011;61467;50.674;4.618;2023-11-18T07:08:35;9.30;;;2.00;;
72649;SDS011;61467;50.674;4.618;2023-11-18T07:11:03;9.00;;;2.17;;
72649;SDS011;61467;50.674;4.618;2023-11-18T07:13:31;6.25;;;1.88;;
72649;SDS011;61467;50.674;4.618;2023-11-18T07:16:00;8.77;;;2.10;;
72649;SDS011;61467;50.674;4.618;2023-11-18T07:18:28;8.00;;;2.30;;
72649;SDS011;61467;50.674;4.618;2023-11-18T07:20:56;8.73;;;2.10;;
72649;SDS011;61467;50.674;4.618;2023-11-18T07:23:23;8.60;;;2.08;;
72649;SDS011;61467;50.674;4.618;2023-11-18T07:25:50;10.10;;;2.35;;
72649;SDS011;61467;50.674;4.618;2023-11-18T07:28:17;8.83;;;2.57;;
72649;SDS011;61467;50.674;4.618;2023-11-18T07:30:43;8.43;;;1.98;;
72649;SDS011;61467;50.674;4.618;2023-11-18T07:33:14;5.95;;;2.13;;
72649;SDS011;61467;50.674;4.618;2023-11-18T07:35:41;10.30;;;2.13;;
72649;SDS011;61467;50.674;4.618;2023-11-18T07:38:08;8.55;;;2.70;;
72649;SDS011;61467;50.674;4.618;2023-11-18T07:40:35;8.47;;;2.20;;
72649;SDS011;61467;50.674;4.618;2023-11-18T07:43:07;7.65;;;2.10;;
72649;SDS011;61467;50.674;4.618;2023-11-18T07:45:35;10.35;;;2.83;;
72649;SDS011;61467;50.674;4.618;2023-11-18T07:48:04;8.43;;;1.88;;
72649;SDS011;61467;50.674;4.618;2023-11-18T07:50:33;6.82;;;2.13;;
72649;SDS011;61467;50.674;4.618;2023-11-18T07:53:00;9.57;;;2.10;;
72649;SDS011;61467;50.674;4.618;2023-11-18T07:55:28;7.97;;;2.22;;
72649;SDS011;61467;50.674;4.618;2023-11-18T07:57:55;9.77;;;2.17;;
72649;SDS011;61467;50.674;4.618;2023-11-18T08:00:22;8.43;;;2.88;;
72649;SDS011;61467;50.674;4.618;2023-11-18T08:02:49;6.75;;;2.53;;
72649;SDS011;61467;50.674;4.618;2023-11-18T08:05:16;7.57;;;2.20;;
72649;SDS011;61467;50.674;4.618;2023-11-18T08:07:45;6.25;;;2.40;;
72649;SDS011;61467;50.674;4.618;2023-11-18T08:10:12;11.32;;;2.80;;
72649;SDS011;61467;50.674;4.618;2023-11-18T08:12:43;9.38;;;2.50;;
72649;SDS011;61467;50.674;4.618;2023-11-18T08:15:10;12.40;;;2.95;;
72649;SDS011;61467;50.674;4.618;2023-11-18T08:17:37;8.93;;;2.40;;
72649;SDS011;61467;50.674;4.618;2023-11-18T08:20:04;10.45;;;2.70;;
72649;SDS011;61467;50.674;4.618;2023-11-18T08:22:39;8.25;;;2.55;;
72649;SDS011;61467;50.674;4.618;2023-11-18T08:25:08;8.43;;;2.92;;
72649;SDS011;61467;50.674;4.618;2023-11-18T08:27:35;8.60;;;2.95;;
72649;SDS011;61467;50.674;4.618;2023-11-18T08:30:02;7.93;;;2.53;;
72649;SDS011;61467;50.674;4.618;2023-11-18T08:32:31;9.55;;;2.58;;
72649;SDS011;61467;50.674;4.618;2023-11-18T08:34:57;10.10;;;3.05;;
72649;SDS011;61467;50.674;4.618;2023-11-18T08:37:25;10.07;;;3.25;;
72649;SDS011;61467;50.674;4.618;2023-11-18T08:39:53;10.27;;;3.28;;
72649;SDS011;61467;50.674;4.618;2023-11-18T08:42:21;13.27;;;3.23;;
72649;SDS011;61467;50.674;4.618;2023-11-18T08:44:49;15.25;;;3.47;;
72649;SDS011;61467;50.674;4.618;2023-11-18T08:47:16;9.50;;;3.17;;
72649;SDS011;61467;50.674;4.618;2023-11-18T08:49:44;11.38;;;3.63;;
72649;SDS011;61467;50.674;4.618;2023-11-18T08:52:11;8.80;;;3.30;;
72649;SDS011;61467;50.674;4.618;2023-11-18T08:54:38;9.87;;;3.53;;
72649;SDS011;61467;50.674;4.618;2023-11-18T08:57:26;11.32;;;3.13;;
72649;SDS011;61467;50.674;4.618;2023-11-18T08:59:59;9.77;;;3.65;;
72649;SDS011;61467;50.674;4.618;2023-11-18T09:02:33;10.07;;;3.42;;
72649;SDS011;61467;50.674;4.618;2023-11-18T09:05:02;13.45;;;3.65;;
72649;SDS011;61467;50.674;4.618;2023-11-18T09:07:37;9.70;;;3.43;;
72649;SDS011;61467;50.674;4.618;2023-11-18T09:10:05;8.80;;;3.35;;
72649;SDS011;61467;50.674;4.618;2023-11-18T09:12:35;9.38;;;3.45;;
72649;SDS011;61467;50.674;4.618;2023-11-18T09:15:02;9.35;;;3.50;;
72649;SDS011;61467;50.674;4.618;2023-11-18T09:17:33;9.40;;;3.50;;
72649;SDS011;61467;50.674;4.618;2023-11-18T09:20:00;8.27;;;3.17;;
72649;SDS011;61467;50.674;4.618;2023-11-18T09:22:27;10.88;;;3.50;;
72649;SDS011;61467;50.674;4.618;2023-11-18T09:24:56;8.45;;;3.22;;
72649;SDS011;61467;50.674;4.618;2023-11-18T09:27:23;11.23;;;3.30;;
72649;SDS011;61467;50.674;4.618;2023-11-18T09:29:51;9.68;;;3.65;;
72649;SDS011;61467;50.674;4.618;2023-11-18T09:32:18;7.67;;;3.10;;
72649;SDS011;61467;50.674;4.618;2023-11-18T09:34:45;10.98;;;3.90;;
72649;SDS011;61467;50.674;4.618;2023-11-18T09:37:13;12.85;;;3.97;;
72649;SDS011;61467;50.674;4.618;2023-11-18T09:39:40;9.43;;;3.30;;
72649;SDS011;61467;50.674;4.618;2023-11-18T09:42:10;7.70;;;3.55;;
72649;SDS011;61467;50.674;4.618;2023-11-18T09:44:43;8.93;;;3.30;;
72649;SDS011;61467;50.674;4.618;2023-11-18T09:47:14;10.50;;;3.60;;
72649;SDS011;61467;50.674;4.618;2023-11-18T09:49:49;8.95;;;3.65;;
72649;SDS011;61467;50.674;4.618;2023-11-18T09:52:19;8.25;;;2.95;;
72649;SDS011;61467;50.674;4.618;2023-11-18T09:54:50;8.23;;;2.78;;
72649;SDS011;61467;50.674;4.618;2023-11-18T09:57:31;8.53;;;3.27;;
72649;SDS011;61467;50.674;4.618;2023-11-18T10:00:00;10.88;;;3.33;;
72649;SDS011;61467;50.674;4.618;2023-11-18T10:02:46;8.95;;;3.17;;
72649;SDS011;61467;50.674;4.618;2023-11-18T10:05:15;8.05;;;3.20;;
72649;SDS011;61467;50.674;4.618;2023-11-18T10:07:46;9.70;;;3.55;;
72649;SDS011;61467;50.674;4.618;2023-11-18T10:10:13;7.33;;;3.10;;
72649;SDS011;61467;50.674;4.618;2023-11-18T10:12:41;7.97;;;3.10;;
72649;SDS011;61467;50.674;4.618;2023-11-18T10:15:10;9.50;;;3.50;;
72649;SDS011;61467;50.674;4.618;2023-11-18T10:17:39;7.40;;;3.08;;
72649;SDS011;61467;50.674;4.618;2023-11-18T10:20:21;8.00;;;3.13;;
72649;SDS011;61467;50.674;4.618;2023-11-18T10:23:05;9.27;;;3.40;;
72649;SDS011;61467;50.674;4.618;2023-11-18T10:25:35;7.43;;;3.15;;
72649;SDS011;61467;50.674;4.618;2023-11-18T10:28:06;8.57;;;3.55;;
72649;SDS011;61467;50.674;4.618;2023-11-18T10:30:42;8.82;;;3.00;;
72649;SDS011;61467;50.674;4.618;2023-11-18T10:33:12;8.40;;;3.03;;
72649;SDS011;61467;50.674;4.618;2023-11-18T10:35:51;7.13;;;3.10;;
72649;SDS011;61467;50.674;4.618;2023-11-18T10:38:21;8.55;;;3.25;;
72649;SDS011;61467;50.674;4.618;2023-11-18T10:40:50;7.43;;;3.05;;
72649;SDS011;61467;50.674;4.618;2023-11-18T10:43:20;7.45;;;2.90;;
72649;SDS011;61467;50.674;4.618;2023-11-18T10:45:50;8.95;;;3.17;;
72649;SDS011;61467;50.674;4.618;2023-11-18T10:48:18;8.87;;;3.10;;
72649;SDS011;61467;50.674;4.618;2023-11-18T10:50:46;6.68;;;2.70;;
72649;SDS011;61467;50.674;4.618;2023-11-18T10:53:16;8.32;;;3.03;;
72649;SDS011;61467;50.674;4.618;2023-11-18T10:55:44;6.57;;;2.75;;
72649;SDS011;61467;50.674;4.618;2023-11-18T10:58:11;8.25;;;3.00;;
72649;SDS011;61467;50.674;4.618;2023-11-18T11:00:46;5.77;;;2.20;;
72649;SDS011;61467;50.674;4.618;2023-11-18T11:03:14;7.10;;;2.15;;
72649;SDS011;61467;50.674;4.618;2023-11-18T11:05:41;8.57;;;2.22;;
72649;SDS011;61467;50.674;4.618;2023-11-18T11:08:09;7.35;;;1.92;;
72649;SDS011;61467;50.674;4.618;2023-11-18T11:10:40;5.60;;;1.90;;
72649;SDS011;61467;50.674;4.618;2023-11-18T11:13:08;7.13;;;1.80;;
72649;SDS011;61467;50.674;4.618;2023-11-18T11:15:38;7.45;;;1.77;;
72649;SDS011;61467;50.674;4.618;2023-11-18T11:18:11;7.80;;;1.70;;
72649;SDS011;61467;50.674;4.618;2023-11-18T11:20:41;4.95;;;1.58;;
72649;SDS011;61467;50.674;4.618;2023-11-18T11:23:15;4.45;;;1.50;;
72649;SDS011;61467;50.674;4.618;2023-11-18T11:25:53;4.83;;;1.30;;
72649;SDS011;61467;50.674;4.618;2023-11-18T11:28:31;4.53;;;1.20;;
72649;SDS011;61467;50.674;4.618;2023-11-18T11:31:08;5.63;;;1.60;;
72649;SDS011;61467;50.674;4.618;2023-11-18T11:33:43;6.70;;;1.48;;
72649;SDS011;61467;50.674;4.618;2023-11-18T11:36:15;5.00;;;1.40;;
72649;SDS011;61467;50.674;4.618;2023-11-18T11:38:48;6.10;;;1.20;;
72649;SDS011;61467;50.674;4.618;2023-11-18T11:41:17;5.50;;;1.10;;
72649;SDS011;61467;50.674;4.618;2023-11-18T11:43:51;4.00;;;1.05;;
72649;SDS011;61467;50.674;4.618;2023-11-18T11:46:24;5.28;;;1.10;;
72649;SDS011;61467;50.674;4.618;2023-11-18T11:49:00;4.22;;;1.08;;
72649;SDS011;61467;50.674;4.618;2023-11-18T11:51:37;4.07;;;0.90;;
72649;SDS011;61467;50.674;4.618;2023-11-18T11:54:10;5.20;;;1.10;;
72649;SDS011;61467;50.674;4.618;2023-11-18T11:56:45;5.00;;;1.23;;
72649;SDS011;61467;50.674;4.618;2023-11-18T11:59:15;5.47;;;1.00;;
72649;SDS011;61467;50.674;4.618;2023-11-18T12:01:43;5.22;;;1.15;;
72649;SDS011;61467;50.674;4.618;2023-11-18T12:04:12;3.07;;;0.60;;
72649;SDS011;61467;50.674;4.618;2023-11-18T12:06:48;3.20;;;0.70;;
72649;SDS011;61467;50.674;4.618;2023-11-18T12:09:18;2.65;;;0.90;;
72649;SDS011;61467;50.674;4.618;2023-11-18T12:11:49;3.92;;;0.98;;
72649;SDS011;61467;50.674;4.618;2023-11-18T12:14:16;3.22;;;0.90;;
72649;SDS011;61467;50.674;4.618;2023-11-18T12:17:06;3.10;;;0.67;;
72649;SDS011;61467;50.674;4.618;2023-11-18T12:19:35;3.17;;;0.70;;
72649;SDS011;61467;50.674;4.618;2023-11-18T12:22:09;3.13;;;0.85;;
72649;SDS011;61467;50.674;4.618;2023-11-18T12:24:43;3.92;;;0.63;;
72649;SDS011;61467;50.674;4.618;2023-11-18T12:27:44;3.75;;;1.00;;
72649;SDS011;61467;50.674;4.618;2023-11-18T12:33:17;2.67;;;0.70;;
72649;SDS011;61467;50.674;4.618;2023-11-18T12:42:03;3.90;;;1.20;;
72649;SDS011;61467;50.674;4.618;2023-11-18T12:44:37;2.22;;;0.70;;
72649;SDS011;61467;50.674;4.618;2023-11-18T12:47:17;2.75;;;0.68;;
72649;SDS011;61467;50.674;4.618;2023-11-18T12:49:53;3.13;;;0.80;;
72649;SDS011;61467;50.674;4.618;2023-11-18T12:52:20;3.53;;;0.98;;
72649;SDS011;61467;50.674;4.618;2023-11-18T12:54:48;3.75;;;0.98;;
72649;SDS011;61467;50.674;4.618;2023-11-18T12:57:18;2.72;;;0.60;;
72649;SDS011;61467;50.674;4.618;2023-11-18T12:59:48;3.30;;;0.93;;
72649;SDS011;61467;50.674;4.618;2023-11-18T13:02:16;2.53;;;0.50;;
72649;SDS011;61467;50.674;4.618;2023-11-18T13:04:44;3.40;;;0.80;;
72649;SDS011;61467;50.674;4.618;2023-11-18T13:07:12;3.85;;;0.80;;
72649;SDS011;61467;50.674;4.618;2023-11-18T13:09:40;4.22;;;0.68;;
72649;SDS011;61467;50.674;4.618;2023-11-18T13:12:10;4.90;;;1.35;;
72649;SDS011;61467;50.674;4.618;2023-11-18T13:14:42;3.67;;;1.10;;
72649;SDS011;61467;50.674;4.618;2023-11-18T13:17:11;4.20;;;1.20;;
72649;SDS011;61467;50.674;4.618;2023-11-18T13:19:40;5.18;;;0.80;;
72649;SDS011;61467;50.674;4.618;2023-11-18T13:22:08;3.60;;;0.70;;
72649;SDS011;61467;50.674;4.618;2023-11-18T13:24:37;4.05;;;0.80;;
72649;SDS011;61467;50.674;4.618;2023-11-18T13:27:05;3.67;;;0.67;;
72649;SDS011;61467;50.674;4.618;2023-11-18T13:29:34;3.95;;;0.93;;
72649;SDS011;61467;50.674;4.618;2023-11-18T13:32:06;2.92;;;0.80;;
72649;SDS011;61467;50.674;4.618;2023-11-18T13:34:34;4.45;;;0.90;;
72649;SDS011;61467;50.674;4.618;2023-11-18T13:37:03;2.50;;;0.90;;
72649;SDS011;61467;50.674;4.618;2023-11-18T13:39:31;4.87;;;0.97;;
72649;SDS011;61467;50.674;4.618;2023-11-18T13:41:58;3.13;;;0.80;;
72649;SDS011;61467;50.674;4.618;2023-11-18T13:44:44;2.78;;;0.60;;
72649;SDS011;61467;50.674;4.618;2023-11-18T13:47:12;3.15;;;0.90;;
72649;SDS011;61467;50.674;4.618;2023-11-18T13:49:40;2.80;;;0.73;;
72649;SDS011;61467;50.674;4.618;2023-11-18T13:52:07;3.37;;;1.00;;
72649;SDS011;61467;50.674;4.618;2023-11-18T13:54:36;3.53;;;0.88;;
72649;SDS011;61467;50.674;4.618;2023-11-18T13:57:05;4.63;;;1.10;;
72649;SDS011;61467;50.674;4.618;2023-11-18T13:59:32;3.83;;;1.20;;
72649;SDS011;61467;50.674;4.618;2023-11-18T14:01:59;3.30;;;0.90;;
72649;SDS011;61467;50.674;4.618;2023-11-18T14:04:29;4.37;;;1.00;;
72649;SDS011;61467;50.674;4.618;2023-11-18T14:06:58;4.07;;;0.90;;
72649;SDS011;61467;50.674;4.618;2023-11-18T14:09:27;4.30;;;1.17;;
72649;SDS011;61467;50.674;4.618;2023-11-18T14:11:55;4.10;;;1.00;;
72649;SDS011;61467;50.674;4.618;2023-11-18T14:14:22;2.58;;;0.77;;
72649;SDS011;61467;50.674;4.618;2023-11-18T14:16:52;3.93;;;0.80;;
72649;SDS011;61467;50.674;4.618;2023-11-18T14:19:22;4.13;;;1.00;;
72649;SDS011;61467;50.674;4.618;2023-11-18T14:21:51;4.50;;;1.20;;
72649;SDS011;61467;50.674;4.618;2023-11-18T14:24:18;3.42;;;0.70;;
72649;SDS011;61467;50.674;4.618;2023-11-18T14:26:48;2.95;;;0.90;;
72649;SDS011;61467;50.674;4.618;2023-11-18T14:29:18;2.83;;;0.80;;
72649;SDS011;61467;50.674;4.618;2023-11-18T14:31:45;3.33;;;0.65;;
72649;SDS011;61467;50.674;4.618;2023-11-18T14:34:12;2.70;;;0.60;;
72649;SDS011;61467;50.674;4.618;2023-11-18T14:36:39;2.97;;;0.60;;
72649;SDS011;61467;50.674;4.618;2023-11-18T14:39:09;2.80;;;0.80;;
72649;SDS011;61467;50.674;4.618;2023-11-18T14:41:38;3.10;;;0.70;;
72649;SDS011;61467;50.674;4.618;2023-11-18T14:44:05;3.33;;;0.75;;
72649;SDS011;61467;50.674;4.618;2023-11-18T14:46:34;5.28;;;1.05;;
72649;SDS011;61467;50.674;4.618;2023-11-18T14:49:03;2.47;;;0.75;;
72649;SDS011;61467;50.674;4.618;2023-11-18T14:51:31;4.88;;;0.90;;
72649;SDS011;61467;50.674;4.618;2023-11-18T14:53:57;3.40;;;0.80;;
72649;SDS011;61467;50.674;4.618;2023-11-18T14:56:26;2.42;;;0.50;;
72649;SDS011;61467;50.674;4.618;2023-11-18T14:58:52;3.53;;;0.90;;
72649;SDS011;61467;50.674;4.618;2023-11-18T15:01:19;2.78;;;0.80;;
72649;SDS011;61467;50.674;4.618;2023-11-18T15:03:46;3.00;;;0.70;;